createdAt,value
2023-01-23T00:00:52.818Z,0.85
2023-01-23T00:03:38.805Z,0.84
2023-01-23T00:06:25.150Z,0.85
2023-01-23T00:09:11.366Z,0.85
2023-01-23T00:11:57.099Z,0.85
2023-01-23T00:14:44.288Z,0.85
2023-01-23T00:17:30.056Z,0.85
2023-01-23T00:20:16.057Z,0.83
2023-01-23T00:23:01.785Z,0.84
2023-01-23T00:25:47.559Z,0.85
2023-01-23T00:28:33.492Z,0.85
2023-01-23T00:31:22.353Z,0.83
2023-01-23T00:34:09.060Z,0.85
2023-01-23T00:36:55.111Z,0.85
2023-01-23T00:39:42.368Z,0.84
2023-01-23T00:42:30.401Z,0.88
2023-01-23T00:45:19.529Z,0.86
2023-01-23T00:48:07.290Z,0.87
2023-01-23T00:50:53.449Z,0.87
2023-01-23T00:53:39.250Z,0.89
2023-01-23T00:56:24.989Z,0.88
2023-01-23T00:59:12.804Z,0.90
2023-01-23T01:01:58.680Z,0.93
2023-01-23T01:04:46.270Z,0.92
2023-01-23T01:07:32.078Z,0.93
2023-01-23T01:10:18.210Z,0.90
2023-01-23T01:13:04.605Z,0.91
2023-01-23T01:15:50.932Z,0.90
2023-01-23T01:18:37.037Z,0.92
2023-01-23T01:21:24.765Z,0.94
2023-01-23T01:24:11.361Z,0.90
2023-01-23T01:26:57.243Z,0.90
2023-01-23T01:29:43.068Z,0.90
2023-01-23T01:32:28.995Z,0.93
2023-01-23T01:35:14.804Z,0.93
2023-01-23T01:38:01.885Z,0.92
2023-01-23T01:40:47.612Z,0.90
2023-01-23T01:43:34.393Z,0.92
2023-01-23T01:46:22.159Z,0.92
2023-01-23T01:49:09.147Z,0.92
2023-01-23T01:51:56.708Z,0.91
2023-01-23T01:54:45.188Z,0.91
2023-01-23T01:57:31.782Z,0.90
2023-01-23T02:00:18.814Z,0.90
2023-01-23T02:03:04.803Z,0.90
2023-01-23T02:05:53.208Z,0.90
2023-01-23T02:08:41.221Z,0.90
2023-01-23T02:11:28.700Z,0.89
2023-01-23T02:14:15.355Z,0.89
2023-01-23T02:17:03.503Z,0.89
2023-01-23T02:19:51.869Z,0.90
2023-01-23T02:22:39.457Z,0.88
2023-01-23T02:25:28.561Z,0.93
2023-01-23T02:28:16.599Z,0.93
2023-01-23T02:31:04.591Z,0.93
2023-01-23T02:33:53.142Z,0.91
2023-01-23T02:36:39.202Z,0.91
2023-01-23T02:39:25.610Z,0.90
2023-01-23T02:42:12.636Z,0.89
2023-01-23T02:45:08.297Z,0.90
2023-01-23T02:47:54.241Z,0.89
2023-01-23T02:50:40.955Z,0.92
2023-01-23T02:53:28.138Z,0.92
2023-01-23T02:56:13.871Z,0.93
2023-01-23T02:59:17.215Z,0.94
2023-01-23T03:02:06.142Z,0.94
2023-01-23T03:04:52.349Z,0.94
2023-01-23T03:07:39.196Z,0.93
2023-01-23T03:10:24.976Z,0.94
2023-01-23T03:13:12.019Z,0.93
2023-01-23T03:15:58.343Z,0.95
2023-01-23T03:18:54.258Z,0.93
2023-01-23T03:21:41.146Z,0.97
2023-01-23T03:24:27.215Z,0.95
2023-01-23T03:27:13.239Z,0.95
2023-01-23T03:30:15.997Z,0.97
2023-01-23T03:33:02.228Z,0.97
2023-01-23T03:35:49.803Z,0.97
2023-01-23T03:38:35.763Z,0.98
2023-01-23T03:41:25.192Z,0.96
2023-01-23T03:44:12.959Z,0.95
2023-01-23T03:46:59.093Z,0.95
2023-01-23T03:49:44.982Z,0.95
2023-01-23T03:52:32.580Z,0.94
2023-01-23T03:55:18.754Z,0.93
2023-01-23T03:58:06.014Z,0.94
2023-01-23T04:00:53.524Z,0.88
2023-01-23T04:03:39.739Z,0.94
2023-01-23T04:06:25.995Z,0.88
2023-01-23T04:09:13.249Z,0.87
2023-01-23T04:12:00.219Z,0.86
2023-01-23T04:14:46.811Z,0.88
2023-01-23T04:17:33.653Z,0.88
2023-01-23T04:20:20.115Z,0.92
2023-01-23T04:23:06.330Z,0.90
2023-01-23T04:25:53.738Z,0.89
2023-01-23T04:28:41.063Z,0.90
2023-01-23T04:31:27.411Z,0.88
2023-01-23T04:34:13.847Z,0.93
2023-01-23T04:37:01.196Z,0.92
2023-01-23T04:39:47.518Z,0.90
2023-01-23T04:42:35.201Z,0.89
2023-01-23T04:45:26.089Z,0.92
2023-01-23T04:48:38.262Z,0.96
2023-01-23T04:51:24.762Z,0.93
2023-01-23T04:54:10.979Z,0.96
2023-01-23T04:56:56.787Z,0.95
2023-01-23T04:59:44.467Z,0.93
2023-01-23T05:02:30.282Z,0.93
2023-01-23T05:05:20.700Z,0.98
2023-01-23T05:08:08.973Z,0.98
2023-01-23T05:10:54.606Z,0.90
2023-01-23T05:13:41.012Z,0.95
2023-01-23T05:16:28.119Z,0.94
2023-01-23T05:19:36.084Z,0.96
2023-01-23T05:22:24.347Z,0.96
2023-01-23T05:25:10.781Z,0.92
2023-01-23T05:27:57.920Z,0.96
2023-01-23T05:30:44.931Z,0.95
2023-01-23T05:33:40.317Z,0.99
2023-01-23T05:36:26.437Z,0.98
2023-01-23T05:39:12.633Z,0.96
2023-01-23T05:41:58.954Z,0.98
2023-01-23T05:44:59.988Z,0.98
2023-01-23T05:47:50.315Z,0.99
2023-01-23T05:50:38.842Z,0.96
2023-01-23T05:53:24.753Z,0.95
2023-01-23T05:56:14.278Z,0.98
2023-01-23T05:59:22.967Z,0.97
2023-01-23T06:02:19.393Z,0.94
2023-01-23T06:05:08.975Z,0.95
2023-01-23T06:08:18.853Z,0.91
2023-01-23T06:11:05.385Z,0.88
2023-01-23T06:13:51.528Z,0.91
2023-01-23T06:16:37.994Z,0.94
2023-01-23T06:19:24.771Z,0.94
2023-01-23T06:22:10.828Z,0.95
2023-01-23T06:25:16.182Z,0.95
2023-01-23T06:28:02.123Z,0.94
2023-01-23T06:30:50.474Z,0.94
2023-01-23T06:33:45.809Z,1.00
2023-01-23T06:36:32.654Z,0.98
2023-01-23T06:39:18.846Z,0.97
2023-01-23T06:42:09.959Z,0.95
2023-01-23T06:44:59.538Z,0.96
2023-01-23T06:47:48.828Z,0.97
2023-01-23T06:50:35.086Z,0.96
2023-01-23T06:53:21.375Z,0.98
2023-01-23T06:56:09.725Z,1.01
2023-01-23T06:58:58.342Z,0.99
2023-01-23T07:01:49.392Z,1.00
2023-01-23T07:04:42.922Z,1.00
2023-01-23T07:07:30.523Z,0.98
2023-01-23T07:10:17.638Z,0.98
2023-01-23T07:13:04.642Z,1.02
2023-01-23T07:15:52.021Z,1.01
2023-01-23T07:18:38.350Z,1.02
2023-01-23T07:21:27.867Z,0.97
2023-01-23T07:24:13.722Z,0.99
2023-01-23T07:26:59.834Z,0.99
2023-01-23T07:29:46.086Z,1.01
2023-01-23T07:32:33.086Z,1.00
2023-01-23T07:35:19.098Z,0.96
2023-01-23T07:38:05.022Z,0.91
2023-01-23T07:40:50.702Z,0.89
2023-01-23T07:43:36.487Z,0.96
2023-01-23T07:46:23.655Z,0.96
2023-01-23T07:49:10.909Z,0.94
2023-01-23T07:51:56.736Z,0.94
2023-01-23T07:54:42.600Z,0.93
2023-01-23T07:57:28.523Z,0.95
2023-01-23T08:00:14.858Z,0.95
2023-01-23T08:03:00.884Z,0.93
2023-01-23T08:05:50.703Z,0.92
2023-01-23T08:08:36.493Z,0.91
2023-01-23T08:11:23.901Z,0.94
2023-01-23T08:14:09.953Z,0.94
2023-01-23T08:16:56.040Z,0.91
2023-01-23T08:19:42.204Z,0.97
2023-01-23T08:22:29.281Z,0.93
2023-01-23T08:25:15.172Z,0.98
2023-01-23T08:28:00.901Z,1.00
2023-01-23T08:30:46.783Z,0.96
2023-01-23T08:33:34.145Z,0.99
2023-01-23T08:36:20.247Z,0.98
2023-01-23T08:39:07.979Z,0.98
2023-01-23T08:41:53.972Z,0.99
2023-01-23T08:44:39.810Z,1.02
2023-01-23T08:47:25.636Z,1.05
2023-01-23T08:50:12.827Z,1.03
2023-01-23T08:52:58.659Z,1.01
2023-01-23T08:55:45.943Z,1.02
2023-01-23T08:58:32.296Z,1.08
2023-01-23T09:01:19.095Z,1.10
2023-01-23T09:04:05.633Z,1.06
2023-01-23T09:06:51.634Z,1.02
2023-01-23T09:09:37.548Z,1.12
2023-01-23T09:12:24.694Z,1.12
2023-01-23T09:15:11.013Z,1.08
2023-01-23T09:17:57.212Z,1.09
2023-01-23T09:20:43.038Z,1.13
2023-01-23T09:23:28.735Z,1.15
2023-01-23T09:26:15.231Z,1.14
2023-01-23T09:29:02.511Z,1.21
2023-01-23T09:31:48.241Z,1.14
2023-01-23T09:34:34.013Z,1.17
2023-01-23T09:37:20.158Z,1.18
2023-01-23T09:40:06.190Z,1.19
2023-01-23T09:42:52.336Z,1.25
2023-01-23T09:45:39.765Z,1.23
2023-01-23T09:48:27.149Z,1.29
2023-01-23T09:51:14.494Z,1.29
2023-01-23T09:54:01.723Z,1.36
2023-01-23T09:56:47.533Z,1.41
2023-01-23T09:59:34.738Z,1.44
2023-01-23T10:02:25.061Z,1.45
2023-01-23T10:05:15.626Z,1.46
2023-01-23T10:08:04.365Z,1.51
2023-01-23T10:10:53.951Z,1.44
2023-01-23T10:13:48.072Z,1.44
2023-01-23T10:16:51.774Z,1.40
2023-01-23T10:19:51.948Z,1.42
2023-01-23T10:22:38.538Z,1.39
2023-01-23T10:25:25.200Z,1.43
2023-01-23T10:28:17.753Z,1.48
2023-01-23T10:31:04.946Z,1.43
2023-01-23T10:33:52.220Z,1.37
2023-01-23T10:36:47.787Z,1.34
2023-01-23T10:39:42.802Z,1.38
2023-01-23T10:42:28.928Z,1.40
2023-01-23T10:45:16.498Z,1.44
2023-01-23T10:48:06.309Z,1.44
2023-01-23T10:50:52.408Z,1.44
2023-01-23T10:53:39.568Z,1.47
2023-01-23T10:56:25.305Z,1.54
2023-01-23T10:59:14.499Z,1.57
2023-01-23T11:02:09.951Z,1.57
2023-01-23T11:04:56.143Z,1.63
2023-01-23T11:07:41.941Z,1.61
2023-01-23T11:10:29.010Z,1.63
2023-01-23T11:13:22.290Z,1.71
2023-01-23T11:16:09.056Z,1.74
2023-01-23T11:18:55.719Z,1.74
2023-01-23T11:21:51.447Z,1.70
2023-01-23T11:24:41.126Z,1.66
2023-01-23T11:27:30.839Z,1.60
2023-01-23T11:30:21.543Z,1.72
2023-01-23T11:33:13.665Z,1.79
2023-01-23T11:36:03.698Z,1.67
2023-01-23T11:38:52.758Z,1.64
2023-01-23T11:41:39.177Z,1.66
2023-01-23T11:44:28.179Z,1.67
2023-01-23T11:47:27.542Z,1.67
2023-01-23T11:50:18.941Z,1.78
2023-01-23T11:53:06.818Z,1.84
2023-01-23T11:55:59.964Z,1.92
2023-01-23T11:59:03.718Z,1.91
2023-01-23T12:02:03.078Z,1.95
2023-01-23T12:05:02.701Z,1.98
2023-01-23T12:07:50.607Z,1.88
2023-01-23T12:10:40.370Z,1.88
2023-01-23T12:13:32.506Z,1.91
2023-01-23T12:16:20.601Z,1.95
2023-01-23T12:19:11.434Z,1.78
2023-01-23T12:21:57.954Z,1.83
2023-01-23T12:24:53.565Z,1.87
2023-01-23T12:27:41.919Z,1.89
2023-01-23T12:30:30.072Z,1.92
2023-01-23T12:33:30.602Z,1.94
2023-01-23T12:36:26.922Z,1.88
2023-01-23T12:39:18.396Z,1.85
2023-01-23T12:42:05.362Z,1.80
2023-01-23T12:44:53.795Z,1.77
2023-01-23T12:47:40.221Z,1.77
2023-01-23T12:50:29.039Z,1.87
2023-01-23T12:53:17.043Z,1.80
2023-01-23T12:56:04.589Z,1.90
2023-01-23T12:58:52.074Z,1.95
2023-01-23T13:01:43.886Z,1.99
2023-01-23T13:04:32.599Z,1.95
2023-01-23T13:07:23.237Z,1.96
2023-01-23T13:10:25.113Z,2.04
2023-01-23T13:13:11.302Z,2.02
2023-01-23T13:16:04.101Z,2.11
2023-01-23T13:19:11.413Z,2.15
2023-01-23T13:22:04.721Z,2.11
2023-01-23T13:25:08.688Z,2.09
2023-01-23T13:27:58.729Z,1.99
2023-01-23T13:30:44.873Z,2.14
2023-01-23T13:33:53.790Z,2.13
2023-01-23T13:36:41.222Z,2.25
2023-01-23T13:39:27.824Z,2.23
2023-01-23T13:42:43.915Z,2.23
2023-01-23T13:45:31.732Z,2.25
2023-01-23T14:22:55.059Z,2.29
2023-01-23T14:25:41.369Z,2.21
2023-01-23T14:28:27.479Z,2.29
2023-01-23T14:31:16.074Z,2.28
2023-01-23T14:34:09.607Z,2.34
2023-01-23T14:37:02.455Z,2.32
2023-01-23T14:39:53.109Z,2.21
2023-01-23T14:42:40.207Z,2.26
2023-01-23T14:45:25.925Z,2.24
2023-01-23T14:48:14.430Z,2.15
2023-01-23T14:51:06.130Z,2.20
2023-01-23T14:53:54.086Z,2.20
2023-01-23T14:56:40.208Z,2.17
2023-01-23T14:59:26.984Z,2.20
2023-01-23T15:02:24.794Z,2.12
2023-01-23T15:05:17.621Z,1.93
2023-01-23T15:08:07.104Z,2.01
2023-01-23T15:10:53.162Z,1.97
2023-01-23T15:13:42.947Z,2.03
2023-01-23T15:16:31.570Z,1.95
2023-01-23T15:19:19.553Z,1.98
2023-01-23T15:22:06.438Z,1.86
2023-01-23T15:24:53.718Z,1.90
2023-01-23T15:27:39.627Z,1.90
2023-01-23T15:30:29.324Z,1.90
2023-01-23T15:33:25.914Z,1.82
2023-01-23T15:36:14.160Z,1.80
2023-01-23T15:39:00.069Z,1.63
2023-01-23T15:41:48.923Z,1.73
2023-01-23T15:44:35.035Z,1.65
2023-01-23T15:47:22.018Z,1.67
2023-01-23T15:50:08.490Z,1.70
2023-01-23T15:52:55.273Z,1.74
2023-01-23T15:55:41.540Z,1.58
2023-01-23T15:58:28.686Z,1.67
2023-01-23T16:01:14.579Z,1.73
2023-01-23T16:04:00.331Z,1.72
2023-01-23T16:06:46.153Z,1.70
2023-01-23T16:09:32.741Z,1.68
2023-01-23T16:12:19.408Z,1.69
2023-01-23T16:15:10.549Z,1.71
2023-01-23T16:17:56.272Z,1.69
2023-01-23T16:20:43.726Z,1.65
2023-01-23T16:23:42.394Z,1.64
2023-01-23T16:26:32.568Z,1.68
2023-01-23T16:29:26.042Z,1.61
2023-01-23T16:32:13.876Z,1.67
2023-01-23T16:34:59.741Z,1.70
2023-01-23T16:37:46.534Z,1.67
2023-01-23T16:40:32.608Z,1.72
2023-01-23T16:43:18.604Z,1.70
2023-01-23T16:46:04.510Z,1.68
2023-01-23T16:48:54.680Z,1.67
2023-01-23T16:51:40.829Z,1.61
2023-01-23T16:54:27.060Z,1.63
2023-01-23T16:57:13.896Z,1.58
2023-01-23T16:59:59.905Z,1.50
2023-01-23T17:02:47.157Z,1.51
2023-01-23T17:05:34.225Z,1.49
2023-01-23T17:08:20.786Z,1.57
2023-01-23T17:11:06.515Z,1.62
2023-01-23T17:13:53.588Z,1.60
2023-01-23T17:16:39.865Z,1.54
2023-01-23T17:19:28.156Z,1.50
2023-01-23T17:22:19.020Z,1.58
2023-01-23T17:25:07.400Z,1.60
2023-01-23T17:28:11.522Z,1.58
2023-01-23T17:31:00.269Z,1.56
2023-01-23T17:33:46.438Z,1.54
2023-01-23T17:36:32.359Z,1.54
2023-01-23T17:39:20.632Z,1.60
2023-01-23T17:42:07.246Z,1.50
2023-01-23T17:44:53.171Z,1.52
2023-01-23T17:47:39.431Z,1.49
2023-01-23T17:50:25.791Z,1.52
2023-01-23T17:53:13.082Z,1.56
2023-01-23T17:56:00.375Z,1.50
2023-01-23T17:58:46.250Z,1.54
2023-01-23T18:01:31.837Z,1.51
2023-01-23T18:04:18.249Z,1.52
2023-01-23T18:07:03.904Z,1.53
2023-01-23T18:09:50.650Z,1.53
2023-01-23T18:12:39.593Z,1.54
2023-01-23T18:15:29.422Z,1.51
2023-01-23T18:18:21.598Z,1.54
2023-01-23T18:21:08.814Z,1.47
2023-01-23T18:23:55.561Z,1.45
2023-01-23T18:26:44.547Z,1.51
2023-01-23T18:29:36.381Z,1.45
2023-01-23T18:32:29.928Z,1.44
2023-01-23T18:35:20.064Z,1.42
2023-01-23T18:38:08.523Z,1.51
2023-01-23T18:40:55.742Z,1.52
2023-01-23T18:43:43.559Z,1.42
2023-01-23T18:46:31.262Z,1.47
2023-01-23T18:49:31.699Z,1.50
2023-01-23T18:52:22.782Z,1.52
2023-01-23T18:55:12.039Z,1.48
2023-01-23T18:58:10.571Z,1.51
2023-01-23T19:00:58.770Z,1.49
2023-01-23T19:03:47.012Z,1.45
2023-01-23T19:06:34.810Z,1.47
2023-01-23T19:09:21.784Z,1.52
2023-01-23T19:12:20.607Z,1.46
2023-01-23T19:15:22.139Z,1.44
2023-01-23T19:18:11.982Z,1.49
2023-01-23T19:21:13.058Z,1.50
2023-01-23T19:23:59.455Z,1.52
2023-01-23T19:26:45.820Z,1.56
2023-01-23T19:29:32.043Z,1.51
2023-01-23T19:32:18.199Z,1.52
2023-01-23T19:35:13.819Z,1.46
2023-01-23T19:38:01.603Z,1.51
2023-01-23T19:40:47.460Z,1.52
2023-01-23T19:43:33.229Z,1.51
2023-01-23T19:46:19.340Z,1.51
2023-01-23T19:49:05.867Z,1.50
2023-01-23T19:51:52.466Z,1.55
2023-01-23T19:54:39.598Z,1.53
2023-01-23T19:57:25.700Z,1.54
2023-01-23T20:00:14.329Z,1.56
2023-01-23T20:03:01.903Z,1.51
2023-01-23T20:05:48.463Z,1.54
2023-01-23T20:08:34.634Z,1.54
2023-01-23T20:11:21.910Z,1.55
2023-01-23T20:14:08.075Z,1.54
2023-01-23T20:16:54.100Z,1.56
2023-01-23T20:19:40.297Z,1.57
2023-01-23T20:22:26.459Z,1.52
2023-01-23T20:25:13.434Z,1.48
2023-01-23T20:28:00.759Z,1.51
2023-01-23T20:30:46.777Z,1.51
2023-01-23T20:33:32.868Z,1.55
2023-01-23T20:36:18.646Z,1.48
2023-01-23T20:39:05.416Z,1.50
2023-01-23T20:41:51.328Z,1.53
2023-01-23T20:44:39.793Z,1.46
2023-01-23T20:47:27.104Z,1.39
2023-01-23T20:50:13.232Z,1.43
2023-01-23T20:53:16.754Z,1.46
2023-01-23T20:56:03.540Z,1.47
2023-01-23T20:59:07.969Z,1.49
2023-01-23T21:02:13.040Z,1.51
2023-01-23T21:04:59.208Z,1.49
2023-01-23T21:07:45.698Z,1.52
2023-01-23T21:10:31.959Z,1.50
2023-01-23T21:13:17.829Z,1.51
2023-01-23T21:16:04.938Z,1.45
2023-01-23T21:18:53.297Z,1.47
2023-01-23T21:21:39.475Z,1.52
2023-01-23T21:24:25.338Z,1.49
2023-01-23T21:27:13.415Z,1.51
2023-01-23T21:29:59.388Z,1.45
2023-01-23T21:32:45.433Z,1.51
2023-01-23T21:35:32.999Z,1.49
2023-01-23T21:38:18.898Z,1.38
2023-01-23T21:41:04.792Z,1.39
2023-01-23T21:43:50.724Z,1.41
2023-01-23T21:46:36.710Z,1.37
2023-01-23T21:49:39.175Z,1.36
2023-01-23T21:52:26.735Z,1.39
2023-01-23T21:55:12.700Z,1.35
2023-01-23T21:57:58.533Z,1.34
2023-01-23T22:01:01.864Z,1.39
2023-01-23T22:03:47.976Z,1.38
2023-01-23T22:06:34.217Z,1.36
2023-01-23T22:09:21.853Z,1.41
2023-01-23T22:12:07.915Z,1.40
2023-01-23T22:14:53.806Z,1.39
2023-01-23T22:17:39.448Z,1.39
2023-01-23T22:20:25.235Z,1.34
2023-01-23T22:23:11.004Z,1.24
2023-01-23T22:25:58.893Z,1.23
2023-01-23T22:28:44.864Z,1.32
2023-01-23T22:31:30.809Z,1.31
2023-01-23T22:34:16.955Z,1.30
2023-01-23T22:37:02.825Z,1.25
2023-01-23T22:39:49.473Z,1.29
2023-01-23T22:42:36.597Z,1.30
2023-01-23T22:45:22.888Z,1.27
2023-01-23T22:48:08.868Z,1.32
2023-01-23T22:50:54.710Z,1.36
2023-01-23T22:53:40.690Z,1.33
2023-01-23T22:56:27.580Z,1.29
2023-01-23T22:59:14.850Z,1.30
2023-01-23T23:02:00.728Z,1.33
2023-01-23T23:04:48.358Z,1.33
2023-01-23T23:07:34.177Z,1.36
2023-01-23T23:10:20.147Z,1.32
2023-01-23T23:13:06.443Z,1.31
2023-01-23T23:15:53.741Z,1.29
2023-01-23T23:18:39.766Z,1.32
2023-01-23T23:21:27.936Z,1.33
2023-01-23T23:24:14.139Z,1.34
2023-01-23T23:27:00.095Z,1.33
2023-01-23T23:29:46.495Z,1.34
2023-01-23T23:32:33.524Z,1.28
2023-01-23T23:35:19.849Z,1.29
2023-01-23T23:38:06.162Z,1.30
2023-01-23T23:40:55.552Z,1.31
2023-01-23T23:43:41.426Z,1.23
2023-01-23T23:46:27.478Z,1.28
2023-01-23T23:49:14.587Z,1.28
2023-01-23T23:52:00.378Z,1.33
2023-01-23T23:54:46.078Z,1.33
2023-01-23T23:57:32.050Z,1.29
